TimeMDT,TemperatureF,Dew PointF,Humidity,Sea Level PressureIn,VisibilityMPH,Wind Direction,Wind SpeedMPH,Gust SpeedMPH,PrecipitationIn,Events,Conditions,WindDirDegrees,DateUTC
12:53 AM,64.0,48.9,58,29.72,10.0,ENE,6.9,-,N/A,,Clear,70,2013-05-16 06:53:00
1:53 AM,63.0,48.0,58,29.71,10.0,Calm,Calm,-,N/A,,Clear,0,2013-05-16 07:53:00
2:53 AM,62.1,48.0,60,29.72,10.0,WSW,3.5,-,N/A,,Clear,240,2013-05-16 08:53:00
3:53 AM,57.9,46.9,67,29.72,10.0,West,10.4,-,N/A,,Clear,280,2013-05-16 09:53:00
4:53 AM,57.9,48.0,70,29.72,10.0,WNW,9.2,-,N/A,,Clear,290,2013-05-16 10:53:00
5:53 AM,55.0,46.0,72,29.74,10.0,SSW,3.5,-,N/A,,Clear,200,2013-05-16 11:53:00
6:53 AM,57.0,46.0,67,29.76,10.0,West,5.8,-,N/A,,Clear,260,2013-05-16 12:53:00
7:53 AM,63.0,48.0,58,29.76,10.0,West,3.5,-,N/A,,Clear,260,2013-05-16 13:53:00
8:53 AM,66.9,48.0,51,29.75,10.0,South,5.8,-,N/A,,Clear,180,2013-05-16 14:53:00
9:53 AM,73.0,48.0,41,29.73,10.0,Variable,5.8,-,N/A,,Clear,0,2013-05-16 15:53:00
10:53 AM,79.0,45.0,30,29.70,10.0,SSE,6.9,-,N/A,,Clear,160,2013-05-16 16:53:00
11:53 AM,82.9,39.9,22,29.68,10.0,WSW,6.9,-,N/A,,Clear,240,2013-05-16 17:53:00
12:53 PM,84.9,34.0,16,29.65,10.0,SSW,4.6,-,N/A,,Clear,210,2013-05-16 18:53:00
1:53 PM,87.1,28.9,12,29.63,10.0,Variable,4.6,-,N/A,,Partly Cloudy,0,2013-05-16 19:53:00
2:53 PM,88.0,25.0,10,29.61,10.0,Variable,3.5,-,N/A,,Clear,0,2013-05-16 20:53:00
4:53 PM,90.0,21.9,8,29.56,10.0,SE,8.1,-,N/A,,Clear,140,2013-05-16 22:53:00
5:53 PM,89.1,17.1,7,29.57,10.0,Variable,5.8,-,N/A,,Clear,0,2013-05-16 23:53:00
6:53 PM,88.0,17.1,7,29.57,10.0,Calm,Calm,-,N/A,,Clear,0,2013-05-17 00:53:00
7:53 PM,84.0,18.0,9,29.58,10.0,Calm,Calm,-,N/A,,Clear,0,2013-05-17 01:53:00
8:53 PM,77.0,37.9,24,29.60,10.0,ESE,15.0,-,N/A,,Clear,120,2013-05-17 02:53:00
9:53 PM,75.0,44.1,33,29.61,10.0,SE,17.3,-,N/A,,Clear,140,2013-05-17 03:53:00
10:30 PM,71.6,44.6,38,29.81,10.0,East,13.8,-,N/A,,Clear,90,2013-05-17 04:30:00
10:53 PM,72.0,44.1,37,29.63,10.0,East,19.6,-,N/A,,Clear,80,2013-05-17 04:53:00
11:53 PM,69.1,46.0,44,29.65,10.0,East,17.3,-,N/A,,Clear,90,2013-05-17 05:53:00